Time;durP1;ratioP1;P1;durP2;ratioP2;P2;SDS_P1;SDS_P2;PMS_P1;PMS_P2;Temp;Humidity;BMP_temperature;BMP_pressure;BME280_temperature;BME280_humidity;BME280_pressure;Samples;Min_cycle;Max_cycle;Signal;HPM_P1;HPM_P2
2022/07/28 00:02:10;;;;;;;4.38;1.20;;;;;;;15.28;64.82;101963.63;5014421;28;20176;-75
2022/07/28 00:04:35;;;;;;;5.78;1.25;;;;;;;15.26;65.08;101965.66;5012888;28;20018;-73
2022/07/28 00:07:01;;;;;;;3.35;1.30;;;;;;;15.26;65.19;101971.09;5012398;28;20025;-73
2022/07/28 00:09:26;;;;;;;4.70;1.38;;;;;;;15.20;65.42;101972.69;5011606;28;20459;-74
2022/07/28 00:11:52;;;;;;;6.60;1.50;;;;;;;15.19;65.59;101970.13;5011722;28;20085;-74
2022/07/28 00:14:17;;;;;;;8.18;1.10;;;;;;;15.13;65.80;101959.00;5012278;28;20033;-74
2022/07/28 00:16:43;;;;;;;5.43;1.33;;;;;;;15.07;65.74;101954.31;5011477;28;20022;-73
2022/07/28 00:19:08;;;;;;;7.57;1.50;;;;;;;15.03;65.91;101955.72;5010923;28;20022;-73
2022/07/28 00:21:34;;;;;;;3.08;1.20;;;;;;;15.03;66.08;101957.59;5012023;28;20497;-74
2022/07/28 00:23:59;;;;;;;5.68;1.30;;;;;;;14.97;66.50;101950.19;5011391;28;20061;-73
2022/07/28 00:26:24;;;;;;;2.28;0.90;;;;;;;14.92;66.80;101951.56;5011177;28;20026;-74
2022/07/28 00:28:50;;;;;;;3.67;1.20;;;;;;;14.84;66.92;101950.81;5011292;28;20061;-74
2022/07/28 00:31:15;;;;;;;2.88;1.13;;;;;;;14.85;67.13;101947.94;5011120;28;20087;-74
2022/07/28 00:33:41;;;;;;;4.75;1.30;;;;;;;14.85;67.13;101949.78;5011690;28;20046;-73
2022/07/28 00:36:08;;;;;;;4.72;1.45;;;;;;;14.78;67.52;101936.13;5011462;28;20029;-74
2022/07/28 00:38:34;;;;;;;5.35;1.20;;;;;;;14.79;67.87;101937.81;5010648;28;20061;-73
2022/07/28 00:41:11;;;;;;;4.93;0.98;;;;;;;14.75;67.99;101933.78;5010659;28;20026;-73
2022/07/28 00:43:42;;;;;;;4.82;1.30;;;;;;;14.67;68.33;101934.69;5010455;28;20532;-71
2022/07/28 00:46:08;;;;;;;3.15;1.20;;;;;;;14.62;68.68;101945.25;5010631;28;20062;-73
2022/07/28 00:48:36;;;;;;;6.38;1.10;;;;;;;14.59;69.00;101950.19;5010329;28;20494;-72
2022/07/28 00:51:02;;;;;;;3.08;1.42;;;;;;;14.56;69.36;101942.41;5011484;28;20478;-75
2022/07/28 00:53:28;;;;;;;5.78;1.77;;;;;;;14.54;69.39;101944.47;5011287;28;20036;-74
2022/07/28 00:55:54;;;;;;;6.20;1.30;;;;;;;14.52;69.66;101950.03;5011319;28;20037;-74
2022/07/28 00:58:19;;;;;;;5.72;1.30;;;;;;;14.50;69.90;101954.78;5012648;28;20065;-75
2022/07/28 01:00:45;;;;;;;4.47;1.38;;;;;;;14.44;70.05;101939.25;5015649;28;20080;-74
2022/07/28 01:03:10;;;;;;;4.10;1.30;;;;;;;14.48;70.26;101943.28;5015302;28;20030;-74
2022/07/28 01:05:52;;;;;;;4.45;1.13;;;;;;;14.49;70.48;101942.28;5014107;28;20034;-74
2022/07/28 01:08:28;;;;;;;7.07;1.95;;;;;;;14.50;70.29;101938.53;5014333;28;20075;-74
2022/07/28 01:11:05;;;;;;;7.10;1.40;;;;;;;14.48;70.32;101940.56;5014265;28;20435;-74
2022/07/28 01:13:41;;;;;;;5.53;1.30;;;;;;;14.44;70.73;101944.69;5014333;28;20484;-74
2022/07/28 01:16:07;;;;;;;3.55;1.38;;;;;;;14.43;70.72;101941.13;5014490;28;20041;-73
2022/07/28 01:19:15;;;;;;;3.33;1.13;;;;;;;14.42;70.92;101935.88;4996255;28;20490;-73
2022/07/28 01:21:41;;;;;;;3.10;1.13;;;;;;;14.41;71.16;101943.16;4926357;28;20183;-73
2022/07/28 01:24:21;;;;;;;2.53;1.67;;;;;;;14.45;71.19;101940.94;4976960;28;20033;-73
2022/07/28 01:26:54;;;;;;;3.00;1.58;;;;;;;14.44;71.07;101939.25;4976997;28;20029;-73
2022/07/28 01:29:38;;;;;;;3.95;1.33;;;;;;;14.41;71.30;101939.63;4994360;28;20117;-74
2022/07/28 01:32:04;;;;;;;4.88;1.65;;;;;;;14.42;71.28;101935.88;5013594;28;20165;-73
2022/07/28 01:34:33;;;;;;;4.45;1.10;;;;;;;14.42;71.18;101927.75;4995968;28;20069;-74
2022/07/28 01:37:09;;;;;;;4.13;1.38;;;;;;;14.43;71.14;101929.47;5013823;28;20527;-74
2022/07/28 01:39:36;;;;;;;5.97;1.30;;;;;;;14.41;70.89;101928.78;4996117;28;20407;-73
2022/07/28 01:42:05;;;;;;;4.55;1.17;;;;;;;14.44;70.93;101920.28;5013685;28;20496;-74
2022/07/28 01:44:31;;;;;;;3.63;1.23;;;;;;;14.40;70.64;101919.84;4999191;28;20493;-76
2022/07/28 01:46:57;;;;;;;6.50;1.40;;;;;;;14.44;70.68;101925.72;5015368;28;20474;-77
2022/07/28 01:49:25;;;;;;;8.68;1.25;;;;;;;14.44;70.50;101923.00;5014649;28;20474;-76
2022/07/28 01:51:51;;;;;;;2.78;1.23;;;;;;;14.42;70.73;101916.91;4995627;28;20038;-75
2022/07/28 01:54:17;;;;;;;3.70;0.95;;;;;;;14.42;70.36;101914.22;4977582;28;20034;-74
2022/07/28 01:56:43;;;;;;;4.82;1.17;;;;;;;14.37;70.30;101912.03;4994168;28;20022;-75
2022/07/28 01:59:10;;;;;;;4.70;1.38;;;;;;;14.36;70.20;101909.53;4999073;28;20025;-75
2022/07/28 02:01:37;;;;;;;6.50;1.80;;;;;;;14.38;70.27;101902.91;5000457;28;20038;-75
2022/07/28 02:04:04;;;;;;;4.57;1.92;;;;;;;14.36;70.10;101904.13;5000266;28;20084;-76
2022/07/28 02:06:31;;;;;;;4.78;1.20;;;;;;;14.31;69.99;101907.34;4997761;28;20040;-75
2022/07/28 02:08:56;;;;;;;6.25;1.48;;;;;;;14.32;70.20;101897.34;4995477;28;20038;-75
2022/07/28 02:11:38;;;;;;;6.15;1.60;;;;;;;14.35;70.21;101897.88;4995800;28;20053;-75
2022/07/28 02:14:12;;;;;;;5.03;1.30;;;;;;;14.35;70.16;101881.63;4997801;28;20027;-76
2022/07/28 02:16:40;;;;;;;4.50;1.10;;;;;;;14.36;70.07;101896.00;5013553;28;20038;-76
2022/07/28 02:19:06;;;;;;;3.25;1.20;;;;;;;14.31;69.89;101884.84;4995521;28;20508;-75
2022/07/28 02:21:32;;;;;;;5.22;1.27;;;;;;;14.31;70.05;101890.28;5013255;28;20041;-76
2022/07/28 02:23:58;;;;;;;7.75;1.65;;;;;;;14.25;69.97;101898.09;5012954;28;20025;-73
2022/07/28 02:26:31;;;;;;;4.22;1.30;;;;;;;14.23;69.67;101889.31;5012916;28;20034;-73
2022/07/28 02:28:59;;;;;;;6.40;1.40;;;;;;;14.21;70.27;101890.50;5012487;28;20028;-74
2022/07/28 02:31:27;;;;;;;3.80;1.20;;;;;;;14.27;70.33;101893.34;4995316;28;20057;-74
2022/07/28 02:33:55;;;;;;;3.17;1.10;;;;;;;14.32;69.80;101879.25;5065281;23;20046;-79
2022/07/28 02:36:37;;;;;;;8.65;1.48;;;;;;;14.31;69.55;101882.97;5062792;28;20032;-78
2022/07/28 02:39:06;;;;;;;5.60;1.80;;;;;;;14.34;69.95;101892.63;5066535;28;20041;-80
2022/07/28 02:41:37;;;;;;;3.00;1.20;;;;;;;14.34;69.52;101890.75;5073028;28;20044;-79
2022/07/28 02:44:10;;;;;;;4.22;1.33;;;;;;;14.36;69.21;101893.28;5067617;28;20044;-79
2022/07/28 02:46:41;;;;;;;5.68;1.60;;;;;;;14.32;69.31;101892.78;5072142;28;20083;-79
2022/07/28 02:49:10;;;;;;;5.15;1.45;;;;;;;14.28;69.59;101884.19;5070031;28;20033;-79
2022/07/28 02:51:36;;;;;;;4.65;1.60;;;;;;;14.29;69.57;101882.31;5070151;28;20028;-79
2022/07/28 02:54:03;;;;;;;4.32;1.40;;;;;;;14.25;69.46;101889.13;5070994;28;20045;-78
2022/07/28 02:56:29;;;;;;;3.88;1.00;;;;;;;14.20;69.45;101889.66;5073411;28;20080;-76
2022/07/28 02:58:55;;;;;;;9.38;1.13;;;;;;;14.13;69.94;101896.81;5072474;28;20060;-77
2022/07/28 03:01:21;;;;;;;6.15;1.08;;;;;;;14.16;69.90;101895.63;5072100;28;20061;-78
2022/07/28 03:03:47;;;;;;;5.57;1.73;;;;;;;14.14;69.89;101895.81;5074386;28;20349;-76
2022/07/28 03:06:15;;;;;;;7.07;1.35;;;;;;;14.09;69.91;101903.63;5073941;28;20040;-76
2022/07/28 03:08:40;;;;;;;5.88;1.23;;;;;;;14.10;70.21;101894.47;5072607;28;20040;-78
2022/07/28 03:11:10;;;;;;;5.60;1.52;;;;;;;14.10;70.16;101886.34;5073943;28;20361;-76
2022/07/28 03:13:35;;;;;;;13.30;2.05;;;;;;;14.04;70.51;101895.19;5073685;28;20029;-76
2022/07/28 03:16:01;;;;;;;5.28;1.60;;;;;;;14.04;70.74;101884.38;5072610;28;20176;-76
2022/07/28 03:18:27;;;;;;;4.05;1.58;;;;;;;14.03;70.83;101888.09;5074466;28;20096;-77
2022/07/28 03:20:53;;;;;;;5.28;1.20;;;;;;;14.01;70.98;101904.53;5074203;28;20037;-78
2022/07/28 03:23:20;;;;;;;7.68;1.63;;;;;;;13.97;71.07;101888.81;5074656;28;20052;-79
2022/07/28 03:25:47;;;;;;;6.20;1.63;;;;;;;13.92;71.29;101888.50;5073778;28;20024;-78
2022/07/28 03:28:18;;;;;;;6.87;1.27;;;;;;;13.91;71.59;101895.78;5071776;28;20033;-76
2022/07/28 03:30:47;;;;;;;10.23;1.75;;;;;;;13.81;71.78;101896.00;5072984;28;20044;-78
2022/07/28 03:33:12;;;;;;;3.10;1.30;;;;;;;13.77;72.02;101894.69;5072318;28;20045;-78
2022/07/28 03:35:39;;;;;;;2.33;1.30;;;;;;;13.76;72.37;101897.56;5076602;28;20051;-78
2022/07/28 03:38:06;;;;;;;4.82;1.52;;;;;;;13.69;72.55;101902.84;5059158;28;20087;-78
2022/07/28 03:40:32;;;;;;;5.05;1.30;;;;;;;13.65;72.61;101898.78;5058543;28;20032;-78
2022/07/28 03:43:02;;;;;;;9.23;1.38;;;;;;;13.64;72.74;101898.97;5055976;28;20020;-76
2022/07/28 03:45:28;;;;;;;3.15;1.67;;;;;;;13.59;72.94;101894.94;5071732;28;20034;-78
2022/07/28 03:47:55;;;;;;;6.93;1.30;;;;;;;13.61;72.72;101900.16;5092062;28;20028;-77
2022/07/28 03:50:31;;;;;;;11.30;2.42;;;;;;;13.53;73.02;101903.75;5083331;28;20021;-77
2022/07/28 03:52:58;;;;;;;9.18;1.48;;;;;;;13.53;73.25;101909.16;5071826;28;20032;-78
2022/07/28 03:55:24;;;;;;;2.65;1.38;;;;;;;13.45;73.55;101903.75;5074407;28;20029;-76
2022/07/28 03:57:49;;;;;;;3.90;1.60;;;;;;;13.46;73.58;101912.75;5074911;28;20029;-78
2022/07/28 04:00:16;;;;;;;6.75;1.80;;;;;;;13.48;73.82;101916.09;5074955;28;20037;-78
2022/07/28 04:02:45;;;;;;;6.80;1.50;;;;;;;13.41;73.80;101921.38;5074894;28;20097;-79
2022/07/28 04:05:15;;;;;;;2.92;1.35;;;;;;;13.38;74.05;101917.16;5074118;28;20065;-78
2022/07/28 04:07:41;;;;;;;7.65;2.08;;;;;;;13.37;74.19;101920.84;5074956;28;20040;-78
2022/07/28 04:10:09;;;;;;;3.53;1.60;;;;;;;13.38;74.09;101922.56;5075643;28;20029;-78
2022/07/28 04:12:51;;;;;;;4.15;1.50;;;;;;;13.35;74.39;101922.09;5057490;28;20033;-79
2022/07/28 04:15:17;;;;;;;4.43;1.75;;;;;;;13.32;74.50;101922.41;5083060;28;20033;-78
2022/07/28 04:17:43;;;;;;;8.45;1.80;;;;;;;13.31;74.55;101918.88;5082150;28;20037;-79
2022/07/28 04:20:09;;;;;;;4.68;1.95;;;;;;;13.28;74.58;101921.91;5088050;28;20055;-78
2022/07/28 04:22:34;;;;;;;7.22;1.90;;;;;;;13.22;74.80;101919.88;5095524;28;20055;-78
2022/07/28 04:25:03;;;;;;;6.30;1.98;;;;;;;13.23;75.20;101918.03;5076942;28;20033;-78
2022/07/28 04:27:28;;;;;;;7.90;1.80;;;;;;;13.23;75.29;101923.44;5059041;28;20488;-77
2022/07/28 04:29:53;;;;;;;5.72;1.65;;;;;;;13.24;75.04;101925.94;5055355;28;20124;-76
2022/07/28 04:32:19;;;;;;;9.25;2.00;;;;;;;13.29;74.96;101918.19;5072371;28;20029;-77
2022/07/28 04:34:44;;;;;;;5.70;1.77;;;;;;;13.31;74.95;101926.97;5072079;28;20041;-77
2022/07/28 04:37:10;;;;;;;5.57;1.85;;;;;;;13.31;74.96;101918.88;5072240;28;20040;-78
2022/07/28 04:39:35;;;;;;;5.50;1.55;;;;;;;13.35;75.07;101916.69;5071789;28;20021;-78
2022/07/28 04:42:01;;;;;;;14.40;1.90;;;;;;;13.36;74.76;101916.47;5076299;28;20093;-77
2022/07/28 04:44:26;;;;;;;6.07;1.85;;;;;;;13.38;74.57;101917.16;5074297;28;20031;-78
2022/07/28 04:46:52;;;;;;;7.65;2.10;;;;;;;13.34;74.51;101920.38;5078414;28;20028;-78
2022/07/28 04:49:17;;;;;;;10.25;2.20;;;;;;;13.38;74.58;101919.03;5091567;28;20033;-77
2022/07/28 04:51:48;;;;;;;6.78;1.90;;;;;;;13.36;74.53;101913.78;5088905;28;20358;-77
2022/07/28 04:54:13;;;;;;;4.55;1.50;;;;;;;13.36;74.61;101918.34;5039315;28;20036;-79
2022/07/28 04:56:39;;;;;;;7.72;2.08;;;;;;;13.41;74.54;101907.84;5079003;28;20092;-78
2022/07/28 04:59:04;;;;;;;4.30;1.52;;;;;;;13.38;74.32;101921.72;5076668;28;20047;-78
2022/07/28 05:01:29;;;;;;;6.28;1.63;;;;;;;13.35;74.42;101912.09;5088932;28;20024;-77
2022/07/28 05:03:55;;;;;;;8.32;2.15;;;;;;;13.42;74.37;101912.22;5091535;28;20021;-78
2022/07/28 05:06:21;;;;;;;4.43;1.80;;;;;;;13.45;74.57;101913.75;5087200;28;20012;-78
2022/07/28 05:08:46;;;;;;;6.40;1.77;;;;;;;13.52;74.20;101917.44;5071904;28;20089;-77
2022/07/28 05:11:11;;;;;;;6.25;1.70;;;;;;;13.55;73.72;101909.81;5067399;28;20041;-78
2022/07/28 05:13:37;;;;;;;3.30;1.77;;;;;;;13.56;73.49;101918.75;5077101;28;20480;-76
2022/07/28 05:16:02;;;;;;;5.57;2.17;;;;;;;13.60;73.47;101914.72;5089105;28;20051;-77
2022/07/28 05:18:28;;;;;;;8.25;2.13;;;;;;;13.60;73.52;101920.94;5057629;28;20045;-77
2022/07/28 05:20:53;;;;;;;5.20;1.88;;;;;;;13.63;73.43;101914.34;5052214;28;20028;-78
2022/07/28 05:23:19;;;;;;;5.25;1.60;;;;;;;13.69;73.17;101918.22;5076285;28;20095;-77
2022/07/28 05:25:45;;;;;;;5.65;1.63;;;;;;;13.69;73.05;101923.63;5072425;28;20039;-78
2022/07/28 05:28:10;;;;;;;9.48;2.30;;;;;;;13.70;73.11;101919.91;5064885;28;20063;-77
2022/07/28 05:30:35;;;;;;;4.88;1.45;;;;;;;13.68;73.20;101920.06;5073806;28;20037;-79
2022/07/28 05:33:01;;;;;;;4.63;1.65;;;;;;;13.71;73.37;101921.59;5077014;28;20039;-79
2022/07/28 05:35:26;;;;;;;3.50;1.65;;;;;;;13.74;73.18;101926.63;5093208;28;20040;-78
2022/07/28 05:37:52;;;;;;;5.47;2.20;;;;;;;13.80;72.98;101926.78;5081215;28;20028;-76
2022/07/28 05:40:17;;;;;;;12.30;2.13;;;;;;;13.83;72.75;101926.44;5073298;28;20013;-79
2022/07/28 05:42:43;;;;;;;6.90;2.22;;;;;;;13.77;72.68;101928.97;5089865;28;20024;-77
2022/07/28 05:45:09;;;;;;;3.65;1.90;;;;;;;13.81;72.81;101927.63;5088499;28;20049;-76
2022/07/28 05:47:46;;;;;;;9.45;2.13;;;;;;;13.87;72.68;101931.47;5087646;28;20124;-77
2022/07/28 05:50:13;;;;;;;6.18;2.13;;;;;;;13.91;72.68;101927.41;5095305;28;20118;-78
2022/07/28 05:52:39;;;;;;;4.10;1.80;;;;;;;13.95;72.38;101932.28;5076737;28;20033;-78
2022/07/28 05:55:05;;;;;;;4.90;1.98;;;;;;;14.02;72.17;101927.84;5060332;28;20081;-78
2022/07/28 05:57:30;;;;;;;6.00;2.00;;;;;;;14.08;71.92;101929.00;5057395;28;20036;-78
2022/07/28 05:59:56;;;;;;;4.07;1.50;;;;;;;14.18;71.63;101917.94;5074114;28;20043;-79
2022/07/28 06:02:21;;;;;;;4.32;1.58;;;;;;;14.26;71.21;101921.44;5072052;28;20305;-78
2022/07/28 06:04:47;;;;;;;4.45;1.80;;;;;;;14.28;71.02;101916.69;5073195;28;20338;-78
2022/07/28 06:07:12;;;;;;;8.75;1.85;;;;;;;14.39;71.01;101920.84;5068306;28;20036;-77
2022/07/28 06:09:38;;;;;;;7.00;1.83;;;;;;;14.53;70.58;101921.94;5071073;28;20036;-79
2022/07/28 06:12:03;;;;;;;3.58;1.70;;;;;;;14.62;69.55;101920.84;5077457;28;20055;-77
2022/07/28 06:14:28;;;;;;;9.93;1.92;;;;;;;14.77;69.28;101922.75;5074037;28;20029;-77
2022/07/28 06:16:54;;;;;;;3.05;1.65;;;;;;;14.89;69.21;101926.72;5056738;28;20036;-77
2022/07/28 06:19:19;;;;;;;4.38;1.60;;;;;;;15.04;68.33;101926.75;5073182;28;20083;-77
2022/07/28 06:21:46;;;;;;;6.55;2.03;;;;;;;15.10;68.07;101924.13;5072382;28;20060;-77
2022/07/28 06:24:11;;;;;;;10.95;2.25;;;;;;;15.33;68.07;101931.34;5053951;28;20017;-77
2022/07/28 06:26:38;;;;;;;8.07;1.80;;;;;;;15.49;67.11;101923.03;5073203;28;20039;-79
2022/07/28 06:29:04;;;;;;;11.88;2.05;;;;;;;15.77;66.15;101925.06;5073707;28;20029;-78
2022/07/28 06:31:30;;;;;;;4.95;1.63;;;;;;;15.91;64.91;101921.50;5056303;28;20052;-78
2022/07/28 06:33:55;;;;;;;8.32;1.52;;;;;;;15.87;64.44;101931.03;5072232;28;20041;-79
2022/07/28 06:36:20;;;;;;;6.97;1.50;;;;;;;15.99;64.09;101920.53;5072232;28;20044;-77
2022/07/28 06:38:46;;;;;;;7.38;1.30;;;;;;;16.25;63.20;101920.00;5074271;28;20021;-79
2022/07/28 06:41:11;;;;;;;4.07;1.63;;;;;;;16.34;62.95;101921.53;5069219;28;20033;-78
2022/07/28 06:43:37;;;;;;;8.38;1.48;;;;;;;16.59;61.55;101930.16;5071112;28;20093;-80
2022/07/28 06:46:02;;;;;;;7.60;1.80;;;;;;;16.82;61.41;101921.78;5064984;28;20043;-77
2022/07/28 06:48:28;;;;;;;4.93;1.50;;;;;;;17.36;59.39;101923.00;5085240;28;20060;-79
2022/07/28 06:50:53;;;;;;;3.95;1.27;;;;;;;18.38;57.51;101918.59;5071688;28;20084;-78
2022/07/28 06:53:18;;;;;;;7.80;1.40;;;;;;;19.29;53.23;101920.66;5052542;28;20064;-78
2022/07/28 06:55:44;;;;;;;3.85;1.42;;;;;;;19.66;51.74;101923.69;5072739;28;20025;-77
2022/07/28 06:58:09;;;;;;;5.53;1.40;;;;;;;19.90;50.53;101917.50;5070846;28;20496;-77
2022/07/28 07:00:35;;;;;;;6.78;1.60;;;;;;;20.15;49.79;101919.50;5029495;28;20030;-79
2022/07/28 07:03:00;;;;;;;2.38;1.30;;;;;;;20.41;48.97;101925.88;5072348;28;20067;-77
2022/07/28 07:05:28;;;;;;;5.28;1.55;;;;;;;20.69;48.43;101918.06;5072841;28;20036;-77
2022/07/28 07:07:53;;;;;;;5.72;1.60;;;;;;;21.30;46.92;101918.34;5068808;28;20029;-78
2022/07/28 07:10:18;;;;;;;4.55;1.30;;;;;;;21.15;45.76;101929.69;5074672;28;20033;-78
2022/07/28 07:12:44;;;;;;;4.60;1.45;;;;;;;20.76;46.78;101921.59;5057025;28;20037;-79
2022/07/28 07:15:10;;;;;;;2.97;1.05;;;;;;;20.15;48.75;101924.97;5078937;28;20070;-79
2022/07/28 07:17:38;;;;;;;7.10;1.70;;;;;;;20.26;47.75;101910.59;5072304;28;20043;-81
2022/07/28 07:20:05;;;;;;;7.00;1.38;;;;;;;20.57;47.22;101909.78;5073948;28;20036;-80
2022/07/28 07:22:31;;;;;;;5.80;1.38;;;;;;;20.94;46.42;101917.25;5073929;28;20033;-80
2022/07/28 07:24:56;;;;;;;4.30;1.33;;;;;;;21.26;45.25;101918.78;5071764;28;20071;-79
2022/07/28 07:27:21;;;;;;;4.28;1.38;;;;;;;21.81;43.63;101919.88;5075020;28;20052;-79
2022/07/28 07:29:47;;;;;;;6.93;1.13;;;;;;;22.23;43.35;101914.50;5068638;28;20037;-81
2022/07/28 07:32:12;;;;;;;6.43;1.17;;;;;;;22.67;42.72;101915.03;5069929;28;20156;-80
2022/07/28 07:34:38;;;;;;;9.27;1.30;;;;;;;23.22;40.50;101915.59;5070925;28;20047;-79
2022/07/28 07:37:04;;;;;;;3.25;1.35;;;;;;;23.78;40.25;101917.88;5052860;28;20021;-80
2022/07/28 07:39:30;;;;;;;13.30;1.45;;;;;;;23.70;38.78;101910.81;5071601;28;20047;-79
2022/07/28 07:41:56;;;;;;;10.32;1.65;;;;;;;23.98;38.97;101911.94;5080304;28;20036;-79
2022/07/28 07:44:21;;;;;;;5.80;1.48;;;;;;;24.48;38.59;101912.03;5085586;28;20033;-79
2022/07/28 07:46:47;;;;;;;5.05;1.33;;;;;;;24.98;37.43;101915.88;5066924;28;20033;-80
2022/07/28 07:49:15;;;;;;;3.30;1.33;;;;;;;25.36;36.28;101915.06;5067340;28;20028;-79
2022/07/28 07:51:41;;;;;;;8.73;1.17;;;;;;;25.78;35.33;101916.44;5065907;28;20040;-78
2022/07/28 07:54:06;;;;;;;6.47;1.40;;;;;;;26.18;34.97;101921.56;5077628;28;20044;-80
2022/07/28 07:56:32;;;;;;;4.20;1.02;;;;;;;26.04;34.57;101915.66;5073483;28;20093;-79
2022/07/28 07:58:57;;;;;;;5.72;1.30;;;;;;;25.21;35.57;101922.28;5067127;28;20094;-79
2022/07/28 08:01:23;;;;;;;4.35;1.35;;;;;;;24.87;35.57;101916.81;5066011;28;20044;-83
2022/07/28 08:03:48;;;;;;;3.83;1.33;;;;;;;24.30;37.38;101915.84;5069320;28;20053;-80
2022/07/28 08:06:14;;;;;;;4.57;1.33;;;;;;;24.16;37.23;101914.47;5082394;28;20040;-80
2022/07/28 08:08:39;;;;;;;4.78;1.40;;;;;;;24.36;37.68;101915.94;5082918;28;20025;-80
2022/07/28 08:11:04;;;;;;;3.95;1.50;;;;;;;24.52;36.97;101912.41;5072015;28;20092;-81
2022/07/28 08:13:30;;;;;;;6.80;1.17;;;;;;;24.36;37.39;101910.44;5070003;28;20108;-79
2022/07/28 08:15:55;;;;;;;8.05;1.90;;;;;;;23.75;36.51;101908.22;5070291;28;20060;-80
2022/07/28 08:18:21;;;;;;;6.05;1.30;;;;;;;23.71;37.02;101908.91;5078866;28;20025;-78
2022/07/28 08:20:46;;;;;;;8.07;1.50;;;;;;;24.01;37.87;101908.69;5069827;28;20037;-79
2022/07/28 08:23:11;;;;;;;5.35;1.00;;;;;;;24.17;36.62;101910.66;5070204;28;20025;-79
2022/07/28 08:25:37;;;;;;;6.28;1.33;;;;;;;24.70;36.28;101906.66;5070276;28;20041;-80
2022/07/28 08:28:03;;;;;;;5.95;1.30;;;;;;;24.34;35.81;101913.44;5069676;28;20037;-81
2022/07/28 08:30:28;;;;;;;3.92;1.30;;;;;;;23.82;36.83;101900.63;5051128;28;20047;-79
2022/07/28 08:32:53;;;;;;;5.28;1.45;;;;;;;23.44;37.90;101903.97;5075730;28;20072;-81
2022/07/28 08:35:19;;;;;;;6.40;1.30;;;;;;;23.40;38.51;101906.34;5044475;28;20060;-80
2022/07/28 08:37:44;;;;;;;7.05;1.15;;;;;;;22.89;38.43;101902.41;5041852;28;20017;-78
2022/07/28 08:40:16;;;;;;;5.15;1.52;;;;;;;22.43;39.44;101903.19;5040954;28;20108;-78
2022/07/28 08:42:47;;;;;;;2.95;1.10;;;;;;;22.42;39.38;101898.78;5044858;28;20025;-83
2022/07/28 08:45:13;;;;;;;4.22;1.30;;;;;;;22.62;39.67;101895.72;5046580;28;20033;-82
2022/07/28 08:47:40;;;;;;;3.75;1.08;;;;;;;22.86;39.03;101891.09;5042921;28;20033;-81
2022/07/28 08:50:05;;;;;;;4.43;1.30;;;;;;;23.29;38.75;101896.22;5050103;28;20036;-79
2022/07/28 08:52:31;;;;;;;9.30;1.45;;;;;;;23.51;38.24;101896.38;5044241;28;20029;-80
2022/07/28 08:54:58;;;;;;;9.52;1.40;;;;;;;23.44;38.55;101888.31;5048103;28;20037;-79
2022/07/28 08:57:30;;;;;;;4.43;1.58;;;;;;;23.57;37.73;101902.84;5047216;28;20033;-81
2022/07/28 08:59:55;;;;;;;5.22;1.25;;;;;;;23.63;37.42;101897.22;5048520;28;20041;-80
2022/07/28 09:02:22;;;;;;;2.92;1.02;;;;;;;23.51;37.27;101898.31;5061542;28;20033;-80
2022/07/28 09:04:47;;;;;;;5.90;1.20;;;;;;;23.40;37.65;101892.59;5054629;28;20036;-78
2022/07/28 09:07:13;;;;;;;4.28;1.40;;;;;;;23.44;36.95;101902.03;5043521;28;20041;-78
2022/07/28 09:09:39;;;;;;;2.92;1.20;;;;;;;23.50;37.48;101891.16;5054519;28;20067;-77
2022/07/28 09:12:04;;;;;;;6.60;1.67;;;;;;;23.63;37.07;101907.38;5069691;28;20040;-76
2022/07/28 09:14:31;;;;;;;5.38;1.40;;;;;;;23.85;36.96;101902.06;5061418;28;20033;-77
2022/07/28 09:16:58;;;;;;;3.92;1.30;;;;;;;24.49;35.88;101902.72;5063858;28;20111;-78
2022/07/28 09:19:23;;;;;;;4.00;0.93;;;;;;;24.73;34.63;101900.63;5066046;28;20009;-79
2022/07/28 09:21:49;;;;;;;8.85;1.40;;;;;;;24.51;34.76;101897.81;5051527;28;20057;-80
2022/07/28 09:24:34;;;;;;;3.60;1.30;;;;;;;24.09;36.14;101897.28;5055156;28;20132;-79
2022/07/28 09:27:02;;;;;;;5.18;1.55;;;;;;;24.25;35.94;101887.38;5053089;28;20022;-77
2022/07/28 09:29:27;;;;;;;7.00;1.23;;;;;;;24.28;35.09;101886.91;5070244;28;20037;-79
2022/07/28 09:31:52;;;;;;;2.00;1.00;;;;;;;24.23;35.32;101887.66;5058224;28;20185;-80
2022/07/28 09:34:18;;;;;;;9.93;1.50;;;;;;;23.96;34.46;101887.44;5066846;28;20056;-78
2022/07/28 09:36:43;;;;;;;3.53;1.10;;;;;;;23.79;35.58;101890.13;5075258;28;20032;-79
2022/07/28 09:39:09;;;;;;;7.63;1.27;;;;;;;23.66;36.36;101885.72;5076411;28;20037;-77
2022/07/28 09:41:56;;;;;;;3.95;1.17;;;;;;;23.92;36.24;101879.94;5095505;28;20067;-77
2022/07/28 09:44:22;;;;;;;;;;;;;;;24.43;35.13;101878.06;5097340;28;20016;-77
2022/07/28 09:46:47;;;;;;;4.18;1.30;;;;;;;24.78;34.55;101885.25;5095089;28;19912;-77
2022/07/28 09:49:13;;;;;;;7.07;1.25;;;;;;;24.91;34.52;101876.69;5096414;28;20056;-77
2022/07/28 09:51:38;;;;;;;6.35;1.13;;;;;;;25.44;33.26;101890.94;5077010;28;20068;-80
2022/07/28 09:54:14;;;;;;;6.88;1.40;;;;;;;25.47;32.71;101885.72;5071993;28;20035;-79
2022/07/28 09:56:42;;;;;;;4.78;1.55;;;;;;;25.70;32.53;101883.78;5094716;28;20047;-79
2022/07/28 09:59:08;;;;;;;5.70;1.40;;;;;;;25.30;33.01;101885.75;5094819;28;20040;-79
2022/07/28 10:01:49;;;;;;;6.57;1.55;;;;;;;25.12;33.33;101886.91;5077178;28;20045;-77
2022/07/28 10:04:14;;;;;;;3.80;1.38;;;;;;;24.69;34.33;101876.59;5076605;28;20029;-78
2022/07/28 10:06:40;;;;;;;3.00;1.05;;;;;;;24.47;34.95;101865.53;5057162;28;20044;-78
2022/07/28 10:09:06;;;;;;;9.68;1.60;;;;;;;24.51;34.39;101864.78;5053991;28;20029;-79
2022/07/28 10:11:32;;;;;;;7.85;1.23;;;;;;;23.97;34.03;101864.34;5072128;28;20021;-80
2022/07/28 10:14:04;;;;;;;5.20;1.67;;;;;;;23.38;35.36;101859.06;5074002;28;20253;-77
2022/07/28 10:16:35;;;;;;;6.82;1.10;;;;;;;23.05;36.83;101856.97;5075363;28;20061;-78
2022/07/28 10:19:04;;;;;;;3.35;1.08;;;;;;;23.13;35.91;101858.50;5075877;28;20081;-77
2022/07/28 10:21:35;;;;;;;5.50;1.30;;;;;;;23.21;36.50;101855.38;5087212;28;20127;-79
2022/07/28 10:24:05;;;;;;;5.70;1.30;;;;;;;23.66;35.83;101852.75;5072894;28;20111;-79
2022/07/28 10:26:36;;;;;;;3.75;1.10;;;;;;;23.57;35.15;101858.88;5066102;28;20112;-78
2022/07/28 10:29:05;;;;;;;6.55;1.50;;;;;;;23.99;34.94;101853.13;5058833;28;20081;-78
2022/07/28 10:31:40;;;;;;;1.88;1.00;;;;;;;24.19;34.36;101849.88;5093352;28;20033;-78
2022/07/28 10:34:08;;;;;;;4.18;1.20;;;;;;;24.90;33.37;101850.22;5070949;28;20068;-78
2022/07/28 10:36:34;;;;;;;6.22;1.30;;;;;;;25.22;33.47;101844.88;5073460;28;20417;-78
2022/07/28 10:39:18;;;;;;;4.97;1.50;;;;;;;25.90;31.82;101848.19;5074552;28;20047;-78
2022/07/28 10:41:43;;;;;;;4.78;1.13;;;;;;;26.38;31.52;101843.63;5076376;28;20032;-77
2022/07/28 10:44:13;;;;;;;2.42;0.95;;;;;;;26.82;30.58;101832.38;5075044;28;20033;-78
2022/07/28 10:46:42;;;;;;;5.07;1.33;;;;;;;26.47;30.03;101828.25;5056228;28;20083;-78
2022/07/28 10:49:09;;;;;;;5.85;1.45;;;;;;;26.29;30.60;101831.44;5076017;28;20037;-78
2022/07/28 10:51:35;;;;;;;8.27;1.33;;;;;;;25.60;31.22;101832.94;5077894;28;20028;-78
2022/07/28 10:54:07;;;;;;;2.13;0.70;;;;;;;25.25;31.47;101832.53;5076329;28;20021;-77
2022/07/28 10:56:38;;;;;;;4.75;1.10;;;;;;;25.30;32.18;101838.91;5079194;28;20028;-78
2022/07/28 10:59:35;;;;;;;4.85;1.13;;;;;;;25.42;32.14;101830.53;5073627;28;20048;-78
2022/07/28 11:02:01;;;;;;;4.55;1.10;;;;;;;25.44;32.58;101833.03;5070420;28;20052;-79
2022/07/28 11:04:50;;;;;;;1.45;0.85;;;;;;;25.96;30.74;101836.13;5044202;28;20476;-78
2022/07/28 11:07:17;;;;;;;8.32;1.10;;;;;;;26.48;30.15;101840.94;5061715;28;20029;-78
2022/07/28 11:09:43;;;;;;;2.28;0.95;;;;;;;26.48;30.01;101818.88;5060770;28;20108;-77
2022/07/28 11:12:11;;;;;;;3.70;1.10;;;;;;;26.85;30.08;101819.97;5066260;28;20033;-76
2022/07/28 11:14:37;;;;;;;4.80;1.13;;;;;;;27.26;29.12;101820.19;5072708;28;20088;-76
2022/07/28 11:17:02;;;;;;;6.00;0.88;;;;;;;27.53;29.34;101814.47;5056845;28;20115;-77
2022/07/28 11:19:31;;;;;;;3.37;1.10;;;;;;;27.86;28.08;101817.88;5059377;28;20071;-75
2022/07/28 11:22:26;;;;;;;2.90;1.17;;;;;;;27.52;29.10;101818.34;5076671;28;20637;-76
2022/07/28 11:25:04;;;;;;;3.95;1.27;;;;;;;27.38;29.29;101826.31;5070211;28;20040;-77
2022/07/28 11:27:44;;;;;;;2.53;0.95;;;;;;;27.05;29.14;101827.53;5065537;28;20021;-77